createdAt,value
2022-12-01T00:01:37.062Z,20.88
2022-12-01T00:04:03.395Z,21.85
2022-12-01T00:06:29.615Z,21.23
2022-12-01T00:09:19.555Z,24.85
2022-12-01T00:11:46.253Z,22.30
2022-12-01T00:14:12.498Z,20.77
2022-12-01T00:16:40.397Z,22.15
2022-12-01T00:19:06.755Z,21.13
2022-12-01T00:21:32.960Z,22.45
2022-12-01T00:23:59.170Z,20.23
2022-12-01T00:26:26.208Z,19.45
2022-12-01T00:28:53.573Z,21.42
2022-12-01T00:31:20.038Z,19.98
2022-12-01T00:33:46.374Z,18.08
2022-12-01T00:36:12.632Z,20.33
2022-12-01T00:38:39.037Z,20.70
2022-12-01T00:41:05.409Z,19.77
2022-12-01T00:43:31.818Z,19.95
2022-12-01T00:45:58.201Z,22.15
2022-12-01T00:48:24.659Z,17.65
2022-12-01T00:50:51.860Z,20.05
2022-12-01T00:53:18.065Z,21.88
2022-12-01T00:55:44.268Z,19.85
2022-12-01T00:58:10.461Z,21.02
2022-12-01T01:00:38.620Z,20.42
2022-12-01T01:03:06.066Z,20.42
2022-12-01T01:05:35.280Z,19.98
2022-12-01T01:08:01.535Z,23.95
2022-12-01T01:10:27.806Z,21.65
2022-12-01T01:12:54.018Z,21.15
2022-12-01T01:15:20.281Z,23.45
2022-12-01T01:17:46.481Z,20.52
2022-12-01T01:20:12.898Z,26.92
2022-12-01T01:22:39.118Z,26.23
2022-12-01T01:25:05.548Z,24.75
2022-12-01T01:27:31.782Z,22.83
2022-12-01T01:29:57.977Z,23.23
2022-12-01T01:32:24.349Z,28.63
2022-12-01T01:34:50.581Z,25.40
2022-12-01T01:37:16.839Z,24.48
2022-12-01T01:39:43.021Z,27.60
2022-12-01T01:42:12.648Z,28.42
2022-12-01T01:44:48.521Z,28.67
2022-12-01T01:47:15.306Z,28.70
2022-12-01T01:49:42.283Z,30.52
2022-12-01T01:52:09.014Z,28.00
2022-12-01T01:54:37.344Z,25.90
2022-12-01T01:57:04.753Z,27.88
2022-12-01T01:59:33.401Z,31.67
2022-12-01T02:02:05.983Z,28.92
2022-12-01T02:04:37.053Z,27.88
2022-12-01T02:07:03.437Z,34.80
2022-12-01T02:09:29.678Z,30.58
2022-12-01T02:11:55.878Z,31.90
2022-12-01T02:14:30.555Z,32.60
2022-12-01T02:16:56.798Z,37.33
2022-12-01T02:19:35.137Z,35.17
2022-12-01T02:22:01.374Z,34.63
2022-12-01T02:24:46.174Z,34.58
2022-12-01T02:27:19.528Z,35.80
2022-12-01T02:30:00.827Z,40.15
2022-12-01T02:32:27.043Z,36.05
2022-12-01T02:35:03.719Z,37.15
2022-12-01T02:37:35.764Z,41.35
2022-12-01T02:40:06.235Z,40.03
2022-12-01T02:42:49.654Z,41.90
2022-12-01T02:45:21.986Z,42.33
2022-12-01T02:47:49.063Z,39.88
2022-12-01T02:50:15.441Z,41.38
2022-12-01T02:52:42.501Z,40.55
2022-12-01T02:55:08.851Z,40.72
2022-12-01T02:57:35.067Z,38.83
2022-12-01T03:00:01.871Z,42.25
2022-12-01T03:02:31.341Z,41.42
2022-12-01T03:05:09.853Z,40.28
2022-12-01T03:07:45.741Z,40.45
2022-12-01T03:10:16.975Z,37.75
2022-12-01T03:12:49.420Z,39.22
2022-12-01T03:15:23.004Z,38.15
2022-12-01T03:18:01.245Z,37.30
2022-12-01T03:20:47.153Z,35.83
2022-12-01T03:23:16.460Z,38.15
2022-12-01T03:25:44.767Z,38.92
2022-12-01T03:28:21.260Z,39.03
2022-12-01T03:30:50.644Z,42.63
2022-12-01T03:33:21.220Z,43.20
2022-12-01T03:35:55.862Z,41.05
2022-12-01T03:38:24.507Z,42.83
2022-12-01T03:40:52.857Z,44.33
2022-12-01T03:43:20.930Z,47.53
2022-12-01T03:45:53.974Z,45.97
2022-12-01T03:48:21.356Z,46.22
2022-12-01T03:51:03.834Z,46.10
2022-12-01T03:53:34.330Z,45.22
2022-12-01T03:56:05.984Z,48.78
2022-12-01T03:58:34.308Z,47.53
2022-12-01T04:01:04.385Z,49.47
2022-12-01T04:03:30.804Z,50.75
2022-12-01T04:05:57.895Z,52.92
2022-12-01T04:08:24.318Z,50.63
2022-12-01T04:10:50.715Z,52.28
2022-12-01T04:13:23.194Z,52.45
2022-12-01T04:15:52.891Z,54.25
2022-12-01T04:18:19.620Z,59.05
2022-12-01T04:20:46.194Z,56.03
2022-12-01T04:23:32.716Z,57.35
2022-12-01T04:26:00.110Z,61.47
2022-12-01T04:28:26.584Z,66.05
2022-12-01T04:30:52.846Z,60.17
2022-12-01T04:33:19.075Z,58.50
2022-12-01T04:35:45.302Z,58.20
2022-12-01T04:38:11.720Z,58.50
2022-12-01T04:40:38.480Z,59.67
2022-12-01T04:43:04.697Z,64.15
2022-12-01T04:45:30.903Z,64.15
2022-12-01T04:47:57.107Z,59.40
2022-12-01T04:50:23.470Z,61.78
2022-12-01T04:52:49.668Z,57.13
2022-12-01T04:55:15.889Z,57.50
2022-12-01T04:57:42.116Z,58.88
2022-12-01T05:00:12.996Z,62.47
2022-12-01T05:02:43.505Z,59.63
2022-12-01T05:05:10.187Z,56.15
2022-12-01T05:07:36.361Z,57.58
2022-12-01T05:10:03.385Z,61.88
2022-12-01T05:12:29.654Z,59.45
2022-12-01T05:14:55.868Z,59.65
2022-12-01T05:17:22.080Z,56.88
2022-12-01T05:20:06.839Z,60.75
2022-12-01T05:23:03.859Z,59.85
2022-12-01T05:25:19.480Z,60.70
2022-12-01T05:27:45.679Z,60.90
2022-12-01T05:30:12.097Z,62.38
2022-12-01T05:32:38.302Z,63.47
2022-12-01T05:35:05.250Z,62.22
2022-12-01T05:37:34.462Z,66.18
2022-12-01T05:40:01.086Z,61.28
2022-12-01T05:42:27.565Z,53.95
2022-12-01T05:44:53.788Z,58.75
2022-12-01T05:47:19.989Z,57.88
2022-12-01T05:49:46.305Z,59.50
2022-12-01T05:52:12.639Z,63.15
2022-12-01T05:54:38.864Z,56.65
2022-12-01T05:57:05.061Z,59.42
2022-12-01T05:59:31.284Z,59.67
2022-12-01T06:01:57.562Z,53.58
2022-12-01T06:04:24.354Z,56.90
2022-12-01T06:06:50.830Z,63.00
2022-12-01T06:09:17.122Z,57.85
2022-12-01T06:11:43.423Z,56.83
2022-12-01T06:14:09.610Z,55.08
2022-12-01T06:16:35.888Z,59.30
2022-12-01T06:19:02.369Z,56.72
2022-12-01T06:21:28.578Z,58.92
2022-12-01T06:23:54.790Z,56.47
2022-12-01T06:26:21.015Z,54.80
2022-12-01T06:28:47.200Z,61.55
2022-12-01T06:31:13.593Z,62.08
2022-12-01T06:33:39.797Z,55.22
2022-12-01T06:36:06.739Z,56.97
2022-12-01T06:38:34.027Z,58.80
2022-12-01T06:41:00.542Z,55.63
2022-12-01T06:43:27.020Z,53.72
2022-12-01T06:45:57.817Z,53.33
2022-12-01T06:48:27.343Z,51.50
2022-12-01T06:50:56.421Z,55.65
2022-12-01T06:53:22.639Z,50.58
2022-12-01T06:55:49.095Z,68.50
2022-12-01T06:58:16.345Z,53.92
2022-12-01T07:00:46.382Z,49.88
2022-12-01T07:03:15.285Z,51.45
2022-12-01T07:05:41.480Z,51.50
2022-12-01T07:08:07.774Z,50.97
2022-12-01T07:10:33.997Z,51.08
2022-12-01T07:13:00.221Z,52.53
2022-12-01T07:15:28.600Z,52.45
2022-12-01T07:17:54.823Z,55.58
2022-12-01T07:20:21.027Z,47.75
2022-12-01T07:22:47.250Z,49.83
2022-12-01T07:25:13.719Z,45.60
2022-12-01T07:27:39.981Z,51.40
2022-12-01T07:30:06.508Z,43.45
2022-12-01T07:32:32.748Z,48.67
2022-12-01T07:34:58.947Z,44.80
2022-12-01T07:37:25.138Z,46.63
2022-12-01T07:39:51.515Z,41.85
2022-12-01T07:42:17.806Z,44.85
2022-12-01T07:44:44.021Z,43.78
2022-12-01T07:47:10.231Z,42.38
2022-12-01T07:49:36.413Z,44.33
2022-12-01T07:52:02.626Z,39.08
2022-12-01T07:54:28.985Z,43.17
2022-12-01T07:56:55.199Z,97.15
2022-12-01T07:59:21.465Z,63.15
2022-12-01T08:01:47.795Z,51.85
2022-12-01T08:04:14.107Z,41.33
2022-12-01T08:06:40.347Z,40.97
2022-12-01T08:09:06.546Z,45.20
2022-12-01T08:11:32.796Z,48.55
2022-12-01T08:13:59.015Z,46.22
2022-12-01T08:16:25.486Z,48.60
2022-12-01T08:18:51.995Z,45.67
2022-12-01T08:21:19.629Z,48.92
2022-12-01T08:23:46.242Z,43.03
2022-12-01T08:26:14.115Z,44.63
2022-12-01T08:28:40.531Z,46.30
2022-12-01T08:31:10.917Z,45.88
2022-12-01T08:33:37.235Z,44.08
2022-12-01T08:36:04.191Z,43.85
2022-12-01T08:38:30.465Z,47.13
2022-12-01T08:41:03.922Z,45.67
2022-12-01T08:43:56.098Z,42.65
2022-12-01T08:46:16.673Z,45.75
2022-12-01T08:48:42.901Z,48.15
2022-12-01T08:51:13.877Z,44.97
2022-12-01T08:53:45.279Z,42.85
2022-12-01T08:56:14.427Z,41.85
2022-12-01T08:58:40.648Z,43.40
2022-12-01T09:01:08.284Z,43.88
2022-12-01T09:03:35.187Z,42.38
2022-12-01T09:06:02.708Z,39.85
2022-12-01T09:08:31.754Z,37.83
2022-12-01T09:10:58.851Z,43.70
2022-12-01T09:13:25.324Z,41.55
2022-12-01T09:15:55.582Z,41.22
2022-12-01T09:18:21.889Z,42.15
2022-12-01T09:20:48.110Z,55.28
2022-12-01T09:23:14.278Z,42.17
2022-12-01T09:25:40.462Z,41.78
2022-12-01T09:28:06.680Z,38.75
2022-12-01T09:30:34.225Z,38.97
2022-12-01T09:33:00.870Z,35.85
2022-12-01T09:35:27.393Z,35.67
2022-12-01T09:37:53.586Z,36.70
2022-12-01T09:40:19.778Z,38.20
2022-12-01T09:42:47.233Z,34.63
2022-12-01T09:45:27.830Z,37.85
2022-12-01T09:47:55.407Z,38.38
2022-12-01T09:50:25.174Z,32.60
2022-12-01T09:52:53.621Z,34.08
2022-12-01T09:55:21.403Z,36.22
2022-12-01T09:57:48.531Z,33.50
2022-12-01T10:00:19.282Z,32.90
2022-12-01T10:02:54.781Z,38.05
2022-12-01T10:05:22.305Z,34.55
2022-12-01T10:07:53.898Z,31.80
2022-12-01T10:10:28.193Z,32.28
2022-12-01T10:12:54.392Z,33.15
2022-12-01T10:15:39.135Z,34.53
2022-12-01T10:18:24.479Z,30.63
2022-12-01T10:20:55.942Z,28.67
2022-12-01T10:25:55.462Z,31.75
2022-12-01T10:28:34.438Z,28.40
2022-12-01T10:31:08.031Z,31.48
2022-12-01T10:33:39.994Z,32.53
2022-12-01T10:36:06.992Z,27.95
2022-12-01T10:38:34.960Z,29.70
2022-12-01T10:41:02.099Z,26.23
2022-12-01T10:43:34.060Z,28.77
2022-12-01T10:46:01.388Z,29.60
2022-12-01T10:48:27.669Z,28.13
2022-12-01T10:50:54.713Z,34.50
2022-12-01T10:53:23.912Z,31.63
2022-12-01T10:55:51.505Z,29.98
2022-12-01T10:58:19.305Z,30.95
2022-12-01T11:01:01.905Z,31.20
2022-12-01T11:03:31.120Z,33.17
2022-12-01T11:05:59.477Z,32.95
2022-12-01T11:08:31.678Z,30.88
2022-12-01T11:10:58.184Z,30.58
2022-12-01T11:13:28.443Z,30.70
2022-12-01T11:15:57.226Z,27.45
2022-12-01T11:18:28.311Z,28.13
2022-12-01T11:21:25.267Z,29.90
2022-12-01T11:23:53.410Z,30.48
2022-12-01T11:26:30.130Z,28.58
2022-12-01T11:29:07.593Z,28.55
2022-12-01T11:31:41.230Z,30.90
2022-12-01T11:34:16.076Z,31.42
2022-12-01T11:36:47.023Z,30.42
2022-12-01T11:39:28.682Z,30.58
2022-12-01T11:41:55.897Z,26.95
2022-12-01T11:44:43.522Z,28.63
2022-12-01T11:47:23.064Z,28.63
2022-12-01T11:49:57.481Z,24.50
2022-12-01T11:52:27.206Z,26.15
2022-12-01T11:54:57.790Z,24.17
2022-12-01T11:57:39.473Z,28.73
2022-12-01T12:02:31.854Z,27.35
2022-12-01T12:05:07.176Z,27.20
2022-12-01T12:07:48.189Z,27.27
2022-12-01T12:10:14.397Z,26.17
2022-12-01T12:12:40.766Z,26.95
2022-12-01T12:15:09.967Z,30.52
2022-12-01T12:17:39.227Z,34.15
2022-12-01T12:20:17.583Z,33.63
2022-12-01T12:22:44.014Z,33.30
2022-12-01T12:25:19.372Z,32.28
2022-12-01T12:27:58.136Z,37.60
2022-12-01T12:30:29.485Z,40.75
2022-12-01T12:32:58.872Z,35.72
2022-12-01T12:35:37.757Z,40.33
2022-12-01T12:38:03.940Z,37.35
2022-12-01T12:40:47.276Z,41.90
2022-12-01T12:43:19.777Z,39.28
2022-12-01T12:45:54.351Z,42.15
2022-12-01T12:49:03.507Z,39.80
2022-12-01T12:51:33.794Z,40.20
2022-12-01T12:54:08.146Z,40.53
2022-12-01T12:56:35.297Z,42.38
2022-12-01T12:59:07.022Z,41.33
2022-12-01T13:01:42.170Z,42.15
2022-12-01T13:04:32.054Z,41.33
2022-12-01T13:07:07.990Z,40.83
2022-12-01T13:09:48.590Z,46.45
2022-12-01T13:12:24.691Z,40.20
2022-12-01T13:15:01.030Z,43.90
2022-12-01T13:17:36.852Z,42.78
2022-12-01T13:20:03.823Z,46.30
2022-12-01T13:22:31.937Z,43.47
2022-12-01T13:24:58.312Z,45.65
2022-12-01T13:27:26.380Z,42.33
2022-12-01T13:29:53.618Z,42.22
2022-12-01T13:32:26.362Z,44.95
2022-12-01T13:34:52.766Z,44.08
2022-12-01T13:37:26.335Z,46.30
2022-12-01T13:39:54.314Z,43.78
2022-12-01T13:42:27.365Z,42.15
2022-12-01T13:44:55.199Z,41.35
2022-12-01T13:47:32.269Z,41.10
2022-12-01T13:50:18.542Z,41.20
2022-12-01T13:52:50.599Z,47.00
2022-12-01T13:55:16.815Z,42.83
2022-12-01T13:57:44.415Z,42.20
2022-12-01T14:00:23.649Z,41.60
2022-12-01T14:03:08.638Z,43.45
2022-12-01T14:05:46.937Z,38.78
2022-12-01T14:08:21.247Z,40.90
2022-12-01T14:11:03.965Z,39.03
2022-12-01T14:13:31.048Z,42.90
2022-12-01T14:16:01.687Z,42.28
2022-12-01T14:18:49.034Z,42.90
2022-12-01T14:21:15.351Z,39.40
2022-12-01T14:23:59.267Z,42.40
2022-12-01T14:26:28.355Z,40.83
2022-12-01T14:29:00.710Z,45.35
2022-12-01T14:31:32.997Z,44.05
2022-12-01T14:34:02.966Z,44.20
2022-12-01T14:36:40.414Z,42.70
2022-12-01T14:39:12.374Z,45.88
2022-12-01T14:41:42.182Z,48.28
2022-12-01T14:44:27.237Z,50.58
2022-12-01T14:46:56.301Z,48.63
2022-12-01T14:49:27.842Z,46.15
2022-12-01T14:54:23.798Z,49.08
2022-12-01T14:56:52.430Z,47.97
2022-12-01T14:59:21.846Z,46.00
2022-12-01T15:01:50.078Z,47.90
2022-12-01T15:04:16.848Z,51.05
2022-12-01T15:06:43.456Z,46.30
2022-12-01T15:09:33.419Z,48.90
2022-12-01T15:12:02.358Z,48.67
2022-12-01T15:14:30.118Z,49.03
2022-12-01T15:16:56.463Z,42.58
2022-12-01T15:19:32.810Z,47.42
2022-12-01T15:21:59.792Z,44.05
2022-12-01T15:24:27.148Z,46.92
2022-12-01T15:27:00.520Z,43.78
2022-12-01T15:29:31.343Z,41.65
2022-12-01T15:31:57.632Z,45.05
2022-12-01T15:34:30.396Z,44.47
2022-12-01T15:36:57.154Z,45.38
2022-12-01T15:39:28.658Z,42.90
2022-12-01T15:44:29.731Z,41.67
2022-12-01T15:46:56.303Z,37.38
2022-12-01T15:49:32.145Z,46.38
2022-12-01T15:52:09.206Z,50.42
2022-12-01T15:54:36.075Z,43.60
2022-12-01T15:57:03.385Z,43.70
2022-12-01T15:59:39.870Z,43.88
2022-12-01T16:02:07.342Z,39.95
2022-12-01T16:04:35.333Z,39.55
2022-12-01T16:07:06.784Z,47.13
2022-12-01T16:12:03.533Z,44.65
2022-12-01T16:14:31.560Z,29.23
2022-12-01T16:16:59.465Z,42.70
2022-12-01T16:19:33.078Z,44.33
2022-12-01T16:21:59.365Z,43.33
2022-12-01T16:24:25.778Z,40.70
2022-12-01T16:26:54.231Z,40.42
2022-12-01T16:29:21.550Z,40.97
2022-12-01T16:32:12.702Z,45.67
2022-12-01T16:34:46.043Z,43.92
2022-12-01T16:37:13.206Z,45.00
2022-12-01T16:39:39.390Z,43.75
2022-12-01T16:42:05.686Z,44.65
2022-12-01T16:44:31.942Z,44.35
2022-12-01T16:46:58.194Z,44.70
2022-12-01T16:49:24.410Z,43.58
2022-12-01T16:51:56.104Z,44.58
2022-12-01T16:54:23.327Z,45.25
2022-12-01T16:56:49.620Z,47.55
2022-12-01T16:59:15.817Z,44.50
2022-12-01T17:01:42.080Z,46.03
2022-12-01T17:04:08.372Z,42.95
2022-12-01T17:06:36.007Z,43.35
2022-12-01T17:09:02.226Z,47.47
2022-12-01T17:11:28.448Z,46.97
2022-12-01T17:13:54.711Z,50.58
2022-12-01T17:16:21.321Z,45.17
2022-12-01T17:18:47.925Z,47.38
2022-12-01T17:21:14.164Z,45.95
2022-12-01T17:23:40.597Z,48.63
2022-12-01T17:26:11.391Z,47.70
2022-12-01T17:28:38.191Z,52.03
2022-12-01T17:31:04.743Z,52.00
2022-12-01T17:33:31.302Z,50.60
2022-12-01T17:36:01.742Z,50.92
2022-12-01T17:38:28.192Z,49.15
2022-12-01T17:41:25.279Z,50.63
2022-12-01T17:43:51.709Z,51.20
2022-12-01T17:46:18.004Z,49.80
2022-12-01T17:48:45.219Z,51.88
2022-12-01T17:51:12.348Z,49.70
2022-12-01T17:53:41.988Z,54.13
2022-12-01T17:56:09.661Z,58.05
2022-12-01T17:58:37.160Z,58.17
2022-12-01T18:01:03.882Z,58.58
2022-12-01T18:03:30.188Z,57.38
2022-12-01T18:06:00.387Z,57.65
2022-12-01T18:08:28.392Z,62.88
2022-12-01T18:10:54.809Z,65.40
2022-12-01T18:13:21.936Z,60.75
2022-12-01T18:15:48.478Z,63.85
2022-12-01T18:18:15.024Z,68.30
2022-12-01T18:20:41.716Z,64.30
2022-12-01T18:23:07.986Z,63.63
2022-12-01T18:25:35.000Z,69.15
2022-12-01T18:28:01.307Z,73.60
2022-12-01T18:30:27.929Z,70.60
2022-12-01T18:32:54.422Z,69.13
2022-12-01T18:35:20.650Z,68.22
2022-12-01T18:37:46.974Z,68.50
2022-12-01T18:40:14.282Z,70.75
2022-12-01T18:42:40.761Z,72.20
2022-12-01T18:45:07.678Z,70.15
2022-12-01T18:47:34.122Z,67.22
2022-12-01T18:50:00.341Z,68.95
2022-12-01T18:52:26.657Z,68.75
2022-12-01T18:54:53.581Z,77.68
2022-12-01T18:57:19.973Z,68.43
2022-12-01T18:59:46.238Z,72.88
2022-12-01T19:02:12.519Z,71.80
2022-12-01T19:04:38.735Z,73.30
2022-12-01T19:07:04.987Z,73.15
2022-12-01T19:09:31.173Z,68.80
2022-12-01T19:12:00.041Z,63.58
2022-12-01T19:14:30.526Z,68.40
2022-12-01T19:16:56.817Z,66.25
2022-12-01T19:19:23.292Z,60.22
2022-12-01T19:21:50.374Z,64.68
2022-12-01T19:24:16.753Z,59.63
2022-12-01T19:26:43.940Z,62.53
2022-12-01T19:29:10.247Z,64.22
2022-12-01T19:31:36.574Z,58.35
2022-12-01T19:34:04.070Z,60.25
2022-12-01T19:36:30.325Z,54.80
2022-12-01T19:38:57.911Z,60.63
2022-12-01T19:41:25.242Z,61.90
2022-12-01T19:43:54.665Z,58.15
2022-12-01T19:46:22.308Z,60.10
2022-12-01T19:48:52.755Z,54.03
2022-12-01T19:51:20.674Z,61.95
2022-12-01T19:53:46.994Z,56.55
2022-12-01T19:56:13.233Z,51.53
2022-12-01T19:58:39.585Z,51.47
2022-12-01T20:01:06.942Z,47.28
2022-12-01T20:03:33.208Z,46.70
2022-12-01T20:06:03.753Z,45.38
2022-12-01T20:08:32.825Z,49.47
2022-12-01T20:11:03.370Z,47.92
2022-12-01T20:13:36.961Z,48.65
2022-12-01T20:16:07.834Z,46.92
2022-12-01T20:18:35.167Z,43.83
2022-12-01T20:21:02.287Z,43.95
2022-12-01T20:23:28.482Z,44.67
2022-12-01T20:25:57.723Z,48.85
2022-12-01T20:28:23.947Z,47.08
2022-12-01T20:30:50.141Z,42.60
2022-12-01T20:33:16.612Z,38.47
2022-12-01T20:35:42.835Z,46.45
2022-12-01T20:38:09.057Z,41.03
2022-12-01T20:40:35.281Z,44.20
2022-12-01T20:43:01.489Z,40.80
2022-12-01T20:45:27.777Z,41.28
2022-12-01T20:47:53.999Z,41.83
2022-12-01T20:50:20.224Z,39.50
2022-12-01T20:52:46.435Z,44.13
2022-12-01T20:55:12.724Z,43.13
2022-12-01T20:57:38.976Z,48.17
2022-12-01T21:00:05.457Z,42.55
2022-12-01T21:02:31.659Z,40.45
2022-12-01T21:04:59.385Z,53.92
2022-12-01T21:07:25.853Z,48.25
2022-12-01T21:09:52.106Z,43.33
2022-12-01T21:12:37.096Z,42.45
2022-12-01T21:15:22.193Z,45.35
2022-12-01T21:17:52.914Z,44.90
2022-12-01T21:20:27.886Z,44.15
2022-12-01T21:22:57.147Z,43.75
2022-12-01T21:25:25.498Z,38.60
2022-12-01T21:27:51.784Z,41.55
2022-12-01T21:30:20.785Z,42.03
2022-12-01T21:32:47.572Z,39.60
2022-12-01T21:35:21.693Z,44.30
2022-12-01T21:37:48.584Z,47.95
2022-12-01T21:40:22.460Z,41.92
2022-12-01T21:42:48.849Z,45.20
2022-12-01T21:45:18.213Z,43.42
2022-12-01T21:47:44.470Z,43.10
2022-12-01T21:50:16.467Z,44.13
2022-12-01T21:52:43.561Z,48.22
2022-12-01T21:55:15.944Z,44.28
2022-12-01T21:57:49.450Z,48.47
2022-12-01T22:00:26.724Z,41.10
2022-12-01T22:03:08.045Z,49.63
2022-12-01T22:06:00.976Z,45.72
2022-12-01T22:08:32.242Z,46.38
2022-12-01T22:11:03.841Z,44.70
2022-12-01T22:13:43.559Z,44.13
2022-12-01T22:16:20.225Z,50.90
2022-12-01T22:18:56.824Z,45.97
2022-12-01T22:21:23.191Z,48.72
2022-12-01T22:23:50.019Z,44.20
2022-12-01T22:26:19.374Z,46.85
2022-12-01T22:28:46.484Z,49.35
2022-12-01T22:31:19.208Z,55.97
2022-12-01T22:33:45.460Z,48.28
2022-12-01T22:36:21.835Z,72.75
2022-12-01T22:38:48.077Z,46.72
2022-12-01T22:41:15.712Z,49.03
2022-12-01T22:43:46.360Z,53.30
2022-12-01T22:46:32.741Z,51.33
2022-12-01T22:49:01.369Z,50.85
2022-12-01T22:51:29.225Z,51.97
2022-12-01T22:54:18.437Z,49.22
2022-12-01T22:56:46.246Z,52.88
2022-12-01T22:59:23.740Z,47.83
2022-12-01T23:01:54.398Z,45.92
2022-12-01T23:04:23.167Z,46.80
2022-12-01T23:06:53.042Z,52.22
2022-12-01T23:09:20.020Z,51.92
2022-12-01T23:11:51.902Z,47.28
2022-12-01T23:14:22.222Z,47.80
2022-12-01T23:16:49.458Z,47.90
2022-12-01T23:19:15.663Z,45.67
2022-12-01T23:21:41.854Z,53.83
2022-12-01T23:24:09.181Z,51.72
2022-12-01T23:26:35.390Z,52.55
2022-12-01T23:29:01.595Z,52.35
2022-12-01T23:31:29.019Z,50.78
2022-12-01T23:33:55.389Z,50.65
2022-12-01T23:36:23.034Z,47.58
2022-12-01T23:38:51.356Z,52.08
2022-12-01T23:41:25.712Z,48.42
2022-12-01T23:43:53.679Z,48.15
2022-12-01T23:46:22.455Z,53.05
2022-12-01T23:48:51.162Z,53.42
2022-12-01T23:51:25.157Z,51.80
2022-12-01T23:53:51.927Z,53.25
2022-12-01T23:56:22.517Z,54.28
2022-12-01T23:58:49.348Z,58.07
